sensor_id;sensor_type;location;lat;lon;timestamp;temperature;humidity
16643;DHT22;8435;52.184;5.406;2023-12-14T00:00:07;9.20;99.90
16643;DHT22;8435;52.184;5.406;2023-12-14T00:02:34;9.20;99.90
16643;DHT22;8435;52.184;5.406;2023-12-14T00:05:03;9.20;99.90
16643;DHT22;8435;52.184;5.406;2023-12-14T00:07:30;9.20;99.90
16643;DHT22;8435;52.184;5.406;2023-12-14T00:09:57;9.20;99.90
16643;DHT22;8435;52.184;5.406;2023-12-14T00:12:24;9.20;99.90
16643;DHT22;8435;52.184;5.406;2023-12-14T00:14:51;9.20;99.90
16643;DHT22;8435;52.184;5.406;2023-12-14T00:17:19;9.20;99.90
16643;DHT22;8435;52.184;5.406;2023-12-14T00:19:46;9.20;99.90
16643;DHT22;8435;52.184;5.406;2023-12-14T00:22:14;9.20;99.90
16643;DHT22;8435;52.184;5.406;2023-12-14T00:24:41;9.20;99.90
16643;DHT22;8435;52.184;5.406;2023-12-14T00:27:08;9.20;99.90
16643;DHT22;8435;52.184;5.406;2023-12-14T00:29:35;9.10;99.90
16643;DHT22;8435;52.184;5.406;2023-12-14T00:32:02;9.10;99.90
16643;DHT22;8435;52.184;5.406;2023-12-14T00:34:29;9.10;99.90
16643;DHT22;8435;52.184;5.406;2023-12-14T00:36:56;9.10;99.90
16643;DHT22;8435;52.184;5.406;2023-12-14T00:39:24;9.10;99.90
16643;DHT22;8435;52.184;5.406;2023-12-14T00:41:50;9.10;99.90
16643;DHT22;8435;52.184;5.406;2023-12-14T00:44:17;9.10;99.90
16643;DHT22;8435;52.184;5.406;2023-12-14T00:46:44;9.10;99.90
16643;DHT22;8435;52.184;5.406;2023-12-14T00:49:11;9.10;99.90
16643;DHT22;8435;52.184;5.406;2023-12-14T00:51:37;9.10;99.90
16643;DHT22;8435;52.184;5.406;2023-12-14T00:54:05;9.10;99.90
16643;DHT22;8435;52.184;5.406;2023-12-14T00:56:34;9.10;99.90
16643;DHT22;8435;52.184;5.406;2023-12-14T00:59:00;9.00;99.90
16643;DHT22;8435;52.184;5.406;2023-12-14T01:01:28;9.00;99.90
16643;DHT22;8435;52.184;5.406;2023-12-14T01:03:54;9.00;99.90
16643;DHT22;8435;52.184;5.406;2023-12-14T01:06:21;9.00;99.90
16643;DHT22;8435;52.184;5.406;2023-12-14T01:08:48;9.00;99.90
16643;DHT22;8435;52.184;5.406;2023-12-14T01:11:15;9.00;99.90
16643;DHT22;8435;52.184;5.406;2023-12-14T01:13:43;9.00;99.90
16643;DHT22;8435;52.184;5.406;2023-12-14T01:16:10;8.90;99.90
16643;DHT22;8435;52.184;5.406;2023-12-14T01:18:37;9.00;99.90
16643;DHT22;8435;52.184;5.406;2023-12-14T01:21:04;9.00;99.90
16643;DHT22;8435;52.184;5.406;2023-12-14T01:23:31;9.00;99.90
16643;DHT22;8435;52.184;5.406;2023-12-14T01:25:57;9.00;99.90
16643;DHT22;8435;52.184;5.406;2023-12-14T01:28:24;9.00;99.90
16643;DHT22;8435;52.184;5.406;2023-12-14T01:30:52;9.00;99.90
16643;DHT22;8435;52.184;5.406;2023-12-14T01:33:19;9.00;99.90
16643;DHT22;8435;52.184;5.406;2023-12-14T01:35:46;9.00;99.90
16643;DHT22;8435;52.184;5.406;2023-12-14T01:38:13;9.00;99.90
16643;DHT22;8435;52.184;5.406;2023-12-14T01:40:40;9.00;99.90
16643;DHT22;8435;52.184;5.406;2023-12-14T01:43:07;9.00;99.90
16643;DHT22;8435;52.184;5.406;2023-12-14T01:45:36;9.00;99.90
16643;DHT22;8435;52.184;5.406;2023-12-14T01:48:04;9.00;99.90
16643;DHT22;8435;52.184;5.406;2023-12-14T01:50:34;9.00;99.90
16643;DHT22;8435;52.184;5.406;2023-12-14T01:53:00;9.00;99.90
16643;DHT22;8435;52.184;5.406;2023-12-14T01:55:29;9.00;99.90
16643;DHT22;8435;52.184;5.406;2023-12-14T01:57:56;9.00;99.90
16643;DHT22;8435;52.184;5.406;2023-12-14T02:00:34;9.00;99.90
16643;DHT22;8435;52.184;5.406;2023-12-14T02:03:04;9.00;99.90
16643;DHT22;8435;52.184;5.406;2023-12-14T02:05:30;9.10;99.90
16643;DHT22;8435;52.184;5.406;2023-12-14T02:07:57;9.00;99.90
16643;DHT22;8435;52.184;5.406;2023-12-14T02:10:24;9.00;99.90
16643;DHT22;8435;52.184;5.406;2023-12-14T02:12:53;9.10;99.90
16643;DHT22;8435;52.184;5.406;2023-12-14T02:15:20;9.00;99.90
16643;DHT22;8435;52.184;5.406;2023-12-14T02:17:47;9.00;99.90
16643;DHT22;8435;52.184;5.406;2023-12-14T02:20:15;9.10;99.90
16643;DHT22;8435;52.184;5.406;2023-12-14T02:22:50;9.00;99.90
16643;DHT22;8435;52.184;5.406;2023-12-14T02:25:17;9.00;99.90
16643;DHT22;8435;52.184;5.406;2023-12-14T02:27:44;9.10;99.90
16643;DHT22;8435;52.184;5.406;2023-12-14T02:30:12;9.00;99.90
16643;DHT22;8435;52.184;5.406;2023-12-14T02:32:39;9.10;99.90
16643;DHT22;8435;52.184;5.406;2023-12-14T02:35:07;9.10;99.90
16643;DHT22;8435;52.184;5.406;2023-12-14T02:37:36;9.10;99.90
16643;DHT22;8435;52.184;5.406;2023-12-14T02:40:08;9.00;99.90
16643;DHT22;8435;52.184;5.406;2023-12-14T02:42:35;9.10;99.90
16643;DHT22;8435;52.184;5.406;2023-12-14T02:45:02;9.00;99.90
16643;DHT22;8435;52.184;5.406;2023-12-14T02:47:29;9.00;99.90
16643;DHT22;8435;52.184;5.406;2023-12-14T02:49:56;9.10;99.90
16643;DHT22;8435;52.184;5.406;2023-12-14T02:52:23;9.10;99.90
16643;DHT22;8435;52.184;5.406;2023-12-14T02:54:50;9.10;99.90
16643;DHT22;8435;52.184;5.406;2023-12-14T02:57:18;9.00;99.90
16643;DHT22;8435;52.184;5.406;2023-12-14T02:59:45;9.10;99.90
16643;DHT22;8435;52.184;5.406;2023-12-14T03:02:12;9.10;99.90
16643;DHT22;8435;52.184;5.406;2023-12-14T03:04:39;9.10;99.90
16643;DHT22;8435;52.184;5.406;2023-12-14T03:07:06;9.10;99.90
16643;DHT22;8435;52.184;5.406;2023-12-14T03:09:33;9.10;99.90
16643;DHT22;8435;52.184;5.406;2023-12-14T03:12:00;9.10;99.90
16643;DHT22;8435;52.184;5.406;2023-12-14T03:14:32;9.10;99.90
16643;DHT22;8435;52.184;5.406;2023-12-14T03:17:00;9.10;99.90
16643;DHT22;8435;52.184;5.406;2023-12-14T03:19:27;9.10;99.90
16643;DHT22;8435;52.184;5.406;2023-12-14T03:21:54;9.10;99.90
16643;DHT22;8435;52.184;5.406;2023-12-14T03:24:21;9.10;99.90
16643;DHT22;8435;52.184;5.406;2023-12-14T03:26:48;9.10;99.90
16643;DHT22;8435;52.184;5.406;2023-12-14T03:29:14;9.10;99.90
16643;DHT22;8435;52.184;5.406;2023-12-14T03:31:44;9.10;99.90
16643;DHT22;8435;52.184;5.406;2023-12-14T03:34:12;9.10;99.90
16643;DHT22;8435;52.184;5.406;2023-12-14T03:36:39;9.10;99.90
16643;DHT22;8435;52.184;5.406;2023-12-14T03:39:05;9.10;99.90
16643;DHT22;8435;52.184;5.406;2023-12-14T03:41:32;9.10;99.90
16643;DHT22;8435;52.184;5.406;2023-12-14T03:43:59;9.10;99.90
16643;DHT22;8435;52.184;5.406;2023-12-14T03:46:26;9.10;99.90
16643;DHT22;8435;52.184;5.406;2023-12-14T03:48:54;9.10;99.90
16643;DHT22;8435;52.184;5.406;2023-12-14T03:51:21;9.10;99.90
16643;DHT22;8435;52.184;5.406;2023-12-14T03:53:51;9.10;99.90
16643;DHT22;8435;52.184;5.406;2023-12-14T03:56:17;9.10;99.90
16643;DHT22;8435;52.184;5.406;2023-12-14T03:58:44;9.00;99.90
16643;DHT22;8435;52.184;5.406;2023-12-14T04:01:16;9.00;99.90
16643;DHT22;8435;52.184;5.406;2023-12-14T04:03:46;9.00;99.90
16643;DHT22;8435;52.184;5.406;2023-12-14T04:06:15;9.00;99.90
16643;DHT22;8435;52.184;5.406;2023-12-14T04:08:42;9.00;99.90
16643;DHT22;8435;52.184;5.406;2023-12-14T04:11:09;9.00;99.90
16643;DHT22;8435;52.184;5.406;2023-12-14T04:13:36;9.00;99.90
16643;DHT22;8435;52.184;5.406;2023-12-14T04:16:10;9.00;99.90
16643;DHT22;8435;52.184;5.406;2023-12-14T04:18:37;9.00;99.90
16643;DHT22;8435;52.184;5.406;2023-12-14T04:21:05;8.90;99.90
16643;DHT22;8435;52.184;5.406;2023-12-14T04:23:33;8.90;99.90
16643;DHT22;8435;52.184;5.406;2023-12-14T04:26:00;8.90;99.90
16643;DHT22;8435;52.184;5.406;2023-12-14T04:28:26;8.90;99.90
16643;DHT22;8435;52.184;5.406;2023-12-14T04:30:53;8.90;99.90
16643;DHT22;8435;52.184;5.406;2023-12-14T04:33:22;8.90;99.90
16643;DHT22;8435;52.184;5.406;2023-12-14T04:35:54;8.90;99.90
16643;DHT22;8435;52.184;5.406;2023-12-14T04:38:20;8.80;99.90
16643;DHT22;8435;52.184;5.406;2023-12-14T04:40:49;8.80;99.90
16643;DHT22;8435;52.184;5.406;2023-12-14T04:43:15;8.80;99.90
16643;DHT22;8435;52.184;5.406;2023-12-14T04:45:42;8.90;99.90
16643;DHT22;8435;52.184;5.406;2023-12-14T04:48:09;8.90;99.90
16643;DHT22;8435;52.184;5.406;2023-12-14T04:50:36;8.80;99.90
16643;DHT22;8435;52.184;5.406;2023-12-14T04:53:03;8.80;99.90
16643;DHT22;8435;52.184;5.406;2023-12-14T04:55:30;8.80;99.90
16643;DHT22;8435;52.184;5.406;2023-12-14T04:57:58;8.80;99.90
16643;DHT22;8435;52.184;5.406;2023-12-14T05:00:24;8.80;99.90
16643;DHT22;8435;52.184;5.406;2023-12-14T05:02:51;8.80;99.90
16643;DHT22;8435;52.184;5.406;2023-12-14T05:05:18;8.80;99.90
16643;DHT22;8435;52.184;5.406;2023-12-14T05:07:45;8.80;99.90
16643;DHT22;8435;52.184;5.406;2023-12-14T05:10:12;8.80;99.90
16643;DHT22;8435;52.184;5.406;2023-12-14T05:12:38;8.80;99.90
16643;DHT22;8435;52.184;5.406;2023-12-14T05:15:10;8.80;99.90
16643;DHT22;8435;52.184;5.406;2023-12-14T05:17:37;8.80;99.90
16643;DHT22;8435;52.184;5.406;2023-12-14T05:20:07;8.80;99.90
16643;DHT22;8435;52.184;5.406;2023-12-14T05:22:37;8.80;99.90
16643;DHT22;8435;52.184;5.406;2023-12-14T05:25:04;8.80;99.90
16643;DHT22;8435;52.184;5.406;2023-12-14T05:27:31;8.80;99.90
16643;DHT22;8435;52.184;5.406;2023-12-14T05:29:57;8.80;99.90
16643;DHT22;8435;52.184;5.406;2023-12-14T05:32:25;8.80;99.90
16643;DHT22;8435;52.184;5.406;2023-12-14T05:34:52;8.80;99.90
16643;DHT22;8435;52.184;5.406;2023-12-14T05:37:19;8.80;99.90
16643;DHT22;8435;52.184;5.406;2023-12-14T05:39:46;8.80;99.90
16643;DHT22;8435;52.184;5.406;2023-12-14T05:42:16;8.80;99.90
16643;DHT22;8435;52.184;5.406;2023-12-14T05:44:44;8.80;99.90
16643;DHT22;8435;52.184;5.406;2023-12-14T05:47:11;8.80;99.90
16643;DHT22;8435;52.184;5.406;2023-12-14T05:49:42;8.80;99.90
16643;DHT22;8435;52.184;5.406;2023-12-14T05:52:09;8.80;99.90
16643;DHT22;8435;52.184;5.406;2023-12-14T05:54:35;8.80;99.90
16643;DHT22;8435;52.184;5.406;2023-12-14T05:57:02;8.70;99.90
16643;DHT22;8435;52.184;5.406;2023-12-14T05:59:29;8.70;99.90
16643;DHT22;8435;52.184;5.406;2023-12-14T06:01:57;8.80;99.90
16643;DHT22;8435;52.184;5.406;2023-12-14T06:04:24;8.70;99.90
16643;DHT22;8435;52.184;5.406;2023-12-14T06:06:55;8.70;99.90
16643;DHT22;8435;52.184;5.406;2023-12-14T06:09:24;8.70;99.90
16643;DHT22;8435;52.184;5.406;2023-12-14T06:11:59;8.70;99.90
16643;DHT22;8435;52.184;5.406;2023-12-14T06:14:26;8.70;99.90
16643;DHT22;8435;52.184;5.406;2023-12-14T06:16:52;8.60;99.90
16643;DHT22;8435;52.184;5.406;2023-12-14T06:19:19;8.60;99.90
16643;DHT22;8435;52.184;5.406;2023-12-14T06:21:47;8.60;99.90
16643;DHT22;8435;52.184;5.406;2023-12-14T06:24:15;8.60;99.90
16643;DHT22;8435;52.184;5.406;2023-12-14T06:26:42;8.60;99.90
16643;DHT22;8435;52.184;5.406;2023-12-14T06:29:10;8.60;99.90
16643;DHT22;8435;52.184;5.406;2023-12-14T06:31:37;8.50;99.90
16643;DHT22;8435;52.184;5.406;2023-12-14T06:34:05;8.50;99.90
16643;DHT22;8435;52.184;5.406;2023-12-14T06:36:32;8.50;99.90
16643;DHT22;8435;52.184;5.406;2023-12-14T06:39:00;8.50;99.90
16643;DHT22;8435;52.184;5.406;2023-12-14T06:41:29;8.40;99.90
16643;DHT22;8435;52.184;5.406;2023-12-14T06:43:55;8.50;99.90
16643;DHT22;8435;52.184;5.406;2023-12-14T06:46:27;8.40;99.90
16643;DHT22;8435;52.184;5.406;2023-12-14T06:48:54;8.40;99.90
16643;DHT22;8435;52.184;5.406;2023-12-14T06:51:24;8.40;99.90
16643;DHT22;8435;52.184;5.406;2023-12-14T06:53:51;8.40;99.90
16643;DHT22;8435;52.184;5.406;2023-12-14T06:56:18;8.40;99.90
16643;DHT22;8435;52.184;5.406;2023-12-14T06:58:46;8.40;99.90
16643;DHT22;8435;52.184;5.406;2023-12-14T07:01:15;8.40;99.90
16643;DHT22;8435;52.184;5.406;2023-12-14T07:03:42;8.40;99.90
16643;DHT22;8435;52.184;5.406;2023-12-14T07:06:12;8.30;99.90
16643;DHT22;8435;52.184;5.406;2023-12-14T07:08:39;8.30;99.90
16643;DHT22;8435;52.184;5.406;2023-12-14T07:11:06;8.30;99.90
16643;DHT22;8435;52.184;5.406;2023-12-14T07:13:33;8.30;99.90
16643;DHT22;8435;52.184;5.406;2023-12-14T07:16:04;8.30;99.90
16643;DHT22;8435;52.184;5.406;2023-12-14T07:18:34;8.20;99.90
16643;DHT22;8435;52.184;5.406;2023-12-14T07:21:01;8.30;99.90
16643;DHT22;8435;52.184;5.406;2023-12-14T07:23:28;8.20;99.90
16643;DHT22;8435;52.184;5.406;2023-12-14T07:25:57;8.20;99.90
16643;DHT22;8435;52.184;5.406;2023-12-14T07:28:24;8.20;99.90
16643;DHT22;8435;52.184;5.406;2023-12-14T07:30:51;8.20;99.90
16643;DHT22;8435;52.184;5.406;2023-12-14T07:33:19;8.30;99.90
16643;DHT22;8435;52.184;5.406;2023-12-14T07:35:46;8.30;99.90
16643;DHT22;8435;52.184;5.406;2023-12-14T07:38:13;8.20;99.90
16643;DHT22;8435;52.184;5.406;2023-12-14T07:40:40;8.20;99.90
16643;DHT22;8435;52.184;5.406;2023-12-14T07:43:07;8.20;99.90
16643;DHT22;8435;52.184;5.406;2023-12-14T07:45:34;8.30;99.90
16643;DHT22;8435;52.184;5.406;2023-12-14T07:48:01;8.20;99.90
16643;DHT22;8435;52.184;5.406;2023-12-14T07:50:30;8.30;99.90
16643;DHT22;8435;52.184;5.406;2023-12-14T07:52:57;8.30;99.90
16643;DHT22;8435;52.184;5.406;2023-12-14T07:55:24;8.30;99.90
16643;DHT22;8435;52.184;5.406;2023-12-14T07:57:51;8.30;99.90
16643;DHT22;8435;52.184;5.406;2023-12-14T08:00:18;8.30;99.90
16643;DHT22;8435;52.184;5.406;2023-12-14T08:02:48;8.30;99.90
16643;DHT22;8435;52.184;5.406;2023-12-14T08:05:14;8.30;99.90
16643;DHT22;8435;52.184;5.406;2023-12-14T08:07:43;8.30;99.90
16643;DHT22;8435;52.184;5.406;2023-12-14T08:10:15;8.30;99.90
16643;DHT22;8435;52.184;5.406;2023-12-14T08:12:42;8.30;99.90
16643;DHT22;8435;52.184;5.406;2023-12-14T08:15:09;8.30;99.90
16643;DHT22;8435;52.184;5.406;2023-12-14T08:17:37;8.30;99.90
16643;DHT22;8435;52.184;5.406;2023-12-14T08:20:08;8.40;99.90
16643;DHT22;8435;52.184;5.406;2023-12-14T08:22:37;8.30;99.90
16643;DHT22;8435;52.184;5.406;2023-12-14T08:25:11;8.40;99.90
16643;DHT22;8435;52.184;5.406;2023-12-14T08:27:38;8.40;99.90
16643;DHT22;8435;52.184;5.406;2023-12-14T08:30:06;8.40;99.90
16643;DHT22;8435;52.184;5.406;2023-12-14T08:32:33;8.40;99.90
16643;DHT22;8435;52.184;5.406;2023-12-14T08:35:00;8.40;99.90
16643;DHT22;8435;52.184;5.406;2023-12-14T08:37:27;8.40;99.90
16643;DHT22;8435;52.184;5.406;2023-12-14T08:39:53;8.40;99.90
16643;DHT22;8435;52.184;5.406;2023-12-14T08:42:23;8.40;99.90
16643;DHT22;8435;52.184;5.406;2023-12-14T08:44:50;8.40;99.90
16643;DHT22;8435;52.184;5.406;2023-12-14T08:47:17;8.40;99.90
16643;DHT22;8435;52.184;5.406;2023-12-14T08:49:44;8.50;99.90
16643;DHT22;8435;52.184;5.406;2023-12-14T08:52:10;8.40;99.90
16643;DHT22;8435;52.184;5.406;2023-12-14T08:54:40;8.40;99.90
16643;DHT22;8435;52.184;5.406;2023-12-14T08:57:09;8.50;99.90
16643;DHT22;8435;52.184;5.406;2023-12-14T08:59:39;8.50;99.90
16643;DHT22;8435;52.184;5.406;2023-12-14T09:02:06;8.50;99.90
16643;DHT22;8435;52.184;5.406;2023-12-14T09:04:33;8.50;99.90
16643;DHT22;8435;52.184;5.406;2023-12-14T09:07:01;8.50;99.90
16643;DHT22;8435;52.184;5.406;2023-12-14T09:09:30;8.60;99.90
16643;DHT22;8435;52.184;5.406;2023-12-14T09:11:57;8.60;99.90
16643;DHT22;8435;52.184;5.406;2023-12-14T09:14:24;8.50;99.90
16643;DHT22;8435;52.184;5.406;2023-12-14T09:16:53;8.50;99.90
16643;DHT22;8435;52.184;5.406;2023-12-14T09:19:19;8.60;99.90
16643;DHT22;8435;52.184;5.406;2023-12-14T09:21:46;8.60;99.90
16643;DHT22;8435;52.184;5.406;2023-12-14T09:24:13;8.60;99.90
16643;DHT22;8435;52.184;5.406;2023-12-14T09:26:40;8.60;99.90
16643;DHT22;8435;52.184;5.406;2023-12-14T09:29:06;8.60;99.90
16643;DHT22;8435;52.184;5.406;2023-12-14T09:31:33;8.60;99.90
16643;DHT22;8435;52.184;5.406;2023-12-14T09:34:01;8.60;99.90
16643;DHT22;8435;52.184;5.406;2023-12-14T09:36:28;8.60;99.90
16643;DHT22;8435;52.184;5.406;2023-12-14T09:38:55;8.60;99.90
16643;DHT22;8435;52.184;5.406;2023-12-14T09:41:25;8.60;99.90
16643;DHT22;8435;52.184;5.406;2023-12-14T09:43:52;8.60;99.90
16643;DHT22;8435;52.184;5.406;2023-12-14T09:46:21;8.70;99.90
16643;DHT22;8435;52.184;5.406;2023-12-14T09:48:50;8.60;99.90
16643;DHT22;8435;52.184;5.406;2023-12-14T09:51:18;8.70;99.90
16643;DHT22;8435;52.184;5.406;2023-12-14T09:53:45;8.70;99.90
16643;DHT22;8435;52.184;5.406;2023-12-14T09:56:12;8.70;99.90
16643;DHT22;8435;52.184;5.406;2023-12-14T09:58:39;8.70;99.90
16643;DHT22;8435;52.184;5.406;2023-12-14T10:01:21;8.70;99.90
16643;DHT22;8435;52.184;5.406;2023-12-14T10:03:48;8.80;99.90
16643;DHT22;8435;52.184;5.406;2023-12-14T10:06:15;8.80;99.90
16643;DHT22;8435;52.184;5.406;2023-12-14T10:08:54;8.80;99.90
16643;DHT22;8435;52.184;5.406;2023-12-14T10:11:21;8.80;99.90
16643;DHT22;8435;52.184;5.406;2023-12-14T10:13:48;8.90;99.90
16643;DHT22;8435;52.184;5.406;2023-12-14T10:16:27;8.90;99.90
16643;DHT22;8435;52.184;5.406;2023-12-14T10:18:56;8.90;99.90
16643;DHT22;8435;52.184;5.406;2023-12-14T10:21:23;9.00;99.90
16643;DHT22;8435;52.184;5.406;2023-12-14T10:23:51;9.00;99.90
16643;DHT22;8435;52.184;5.406;2023-12-14T10:26:18;9.00;99.90
16643;DHT22;8435;52.184;5.406;2023-12-14T10:28:45;9.10;99.90
16643;DHT22;8435;52.184;5.406;2023-12-14T10:31:12;9.10;99.90
16643;DHT22;8435;52.184;5.406;2023-12-14T10:33:38;9.20;99.90
16643;DHT22;8435;52.184;5.406;2023-12-14T10:36:06;9.20;99.90
16643;DHT22;8435;52.184;5.406;2023-12-14T10:38:40;9.30;99.90
16643;DHT22;8435;52.184;5.406;2023-12-14T10:41:12;9.30;99.90
16643;DHT22;8435;52.184;5.406;2023-12-14T10:43:41;9.40;99.90
16643;DHT22;8435;52.184;5.406;2023-12-14T10:46:10;9.40;99.90
16643;DHT22;8435;52.184;5.406;2023-12-14T10:48:36;9.50;99.90
16643;DHT22;8435;52.184;5.406;2023-12-14T10:51:04;9.40;99.90
16643;DHT22;8435;52.184;5.406;2023-12-14T10:53:32;9.50;99.90
16643;DHT22;8435;52.184;5.406;2023-12-14T10:56:00;9.50;99.90
16643;DHT22;8435;52.184;5.406;2023-12-14T10:58:44;9.60;99.90
16643;DHT22;8435;52.184;5.406;2023-12-14T11:01:14;9.60;99.90
16643;DHT22;8435;52.184;5.406;2023-12-14T11:03:41;9.60;99.90
16643;DHT22;8435;52.184;5.406;2023-12-14T11:06:20;9.60;99.90
16643;DHT22;8435;52.184;5.406;2023-12-14T11:08:48;9.60;99.90
16643;DHT22;8435;52.184;5.406;2023-12-14T11:11:18;9.60;99.90
16643;DHT22;8435;52.184;5.406;2023-12-14T11:13:51;9.60;99.90
16643;DHT22;8435;52.184;5.406;2023-12-14T11:16:20;9.60;99.90
16643;DHT22;8435;52.184;5.406;2023-12-14T11:18:48;9.60;99.90
16643;DHT22;8435;52.184;5.406;2023-12-14T11:21:18;9.60;99.90
16643;DHT22;8435;52.184;5.406;2023-12-14T11:23:49;9.60;99.90
16643;DHT22;8435;52.184;5.406;2023-12-14T11:26:21;9.60;99.90
16643;DHT22;8435;52.184;5.406;2023-12-14T11:28:55;9.60;99.90
16643;DHT22;8435;52.184;5.406;2023-12-14T11:31:22;9.60;99.90
16643;DHT22;8435;52.184;5.406;2023-12-14T11:33:49;9.70;99.90
16643;DHT22;8435;52.184;5.406;2023-12-14T11:36:16;9.70;99.90
16643;DHT22;8435;52.184;5.406;2023-12-14T11:38:43;9.70;99.90
16643;DHT22;8435;52.184;5.406;2023-12-14T11:41:10;9.70;99.90
16643;DHT22;8435;52.184;5.406;2023-12-14T11:43:40;9.70;99.90
16643;DHT22;8435;52.184;5.406;2023-12-14T11:46:09;9.70;99.90
16643;DHT22;8435;52.184;5.406;2023-12-14T11:48:36;9.70;99.90
16643;DHT22;8435;52.184;5.406;2023-12-14T11:51:03;9.70;99.90
16643;DHT22;8435;52.184;5.406;2023-12-14T11:53:30;9.70;99.90
16643;DHT22;8435;52.184;5.406;2023-12-14T11:55:56;9.70;99.90
16643;DHT22;8435;52.184;5.406;2023-12-14T11:58:24;9.70;99.90
16643;DHT22;8435;52.184;5.406;2023-12-14T12:00:51;9.70;99.90
16643;DHT22;8435;52.184;5.406;2023-12-14T12:03:20;9.70;99.90
16643;DHT22;8435;52.184;5.406;2023-12-14T12:05:48;9.80;99.90
16643;DHT22;8435;52.184;5.406;2023-12-14T12:08:16;9.80;99.90
16643;DHT22;8435;52.184;5.406;2023-12-14T12:10:44;9.80;99.90
16643;DHT22;8435;52.184;5.406;2023-12-14T12:13:14;9.80;99.90
16643;DHT22;8435;52.184;5.406;2023-12-14T12:15:41;9.80;99.90
16643;DHT22;8435;52.184;5.406;2023-12-14T12:18:09;9.90;99.90
16643;DHT22;8435;52.184;5.406;2023-12-14T12:20:41;9.90;99.90
16643;DHT22;8435;52.184;5.406;2023-12-14T12:23:10;9.90;99.90
16643;DHT22;8435;52.184;5.406;2023-12-14T12:25:37;9.90;99.90
16643;DHT22;8435;52.184;5.406;2023-12-14T12:28:05;10.00;99.90
16643;DHT22;8435;52.184;5.406;2023-12-14T12:30:32;9.90;99.90
16643;DHT22;8435;52.184;5.406;2023-12-14T12:33:02;10.00;99.90
16643;DHT22;8435;52.184;5.406;2023-12-14T12:35:31;10.00;99.90
16643;DHT22;8435;52.184;5.406;2023-12-14T12:38:05;10.00;99.90
16643;DHT22;8435;52.184;5.406;2023-12-14T12:40:31;10.00;99.90
16643;DHT22;8435;52.184;5.406;2023-12-14T12:42:59;10.00;99.90
16643;DHT22;8435;52.184;5.406;2023-12-14T12:45:29;10.00;99.90
16643;DHT22;8435;52.184;5.406;2023-12-14T12:47:57;10.00;99.90
16643;DHT22;8435;52.184;5.406;2023-12-14T12:50:24;10.00;99.90
16643;DHT22;8435;52.184;5.406;2023-12-14T12:52:51;10.00;99.90
16643;DHT22;8435;52.184;5.406;2023-12-14T12:55:19;10.00;99.90
16643;DHT22;8435;52.184;5.406;2023-12-14T12:57:47;10.00;99.90
16643;DHT22;8435;52.184;5.406;2023-12-14T13:00:15;10.00;99.90
16643;DHT22;8435;52.184;5.406;2023-12-14T13:02:43;10.00;99.90
16643;DHT22;8435;52.184;5.406;2023-12-14T13:05:10;10.00;99.90
16643;DHT22;8435;52.184;5.406;2023-12-14T13:07:37;10.00;99.90
16643;DHT22;8435;52.184;5.406;2023-12-14T13:10:05;10.00;99.90
16643;DHT22;8435;52.184;5.406;2023-12-14T13:12:34;10.00;99.90
16643;DHT22;8435;52.184;5.406;2023-12-14T13:15:01;10.10;99.90
16643;DHT22;8435;52.184;5.406;2023-12-14T13:17:27;10.10;99.90
16643;DHT22;8435;52.184;5.406;2023-12-14T13:19:54;10.10;99.90
16643;DHT22;8435;52.184;5.406;2023-12-14T13:22:23;10.10;99.90
16643;DHT22;8435;52.184;5.406;2023-12-14T13:24:50;10.10;99.90
16643;DHT22;8435;52.184;5.406;2023-12-14T13:27:17;10.10;99.90
16643;DHT22;8435;52.184;5.406;2023-12-14T13:29:45;10.10;99.90
16643;DHT22;8435;52.184;5.406;2023-12-14T13:32:11;10.10;99.90
16643;DHT22;8435;52.184;5.406;2023-12-14T13:34:38;10.10;99.90
16643;DHT22;8435;52.184;5.406;2023-12-14T13:37:05;10.10;99.90
16643;DHT22;8435;52.184;5.406;2023-12-14T13:39:34;10.10;99.90
16643;DHT22;8435;52.184;5.406;2023-12-14T13:42:06;10.10;99.90
16643;DHT22;8435;52.184;5.406;2023-12-14T13:44:33;10.20;99.90
16643;DHT22;8435;52.184;5.406;2023-12-14T13:47:01;10.20;99.90
16643;DHT22;8435;52.184;5.406;2023-12-14T13:49:28;10.10;99.90
16643;DHT22;8435;52.184;5.406;2023-12-14T13:51:55;10.10;99.90
16643;DHT22;8435;52.184;5.406;2023-12-14T13:54:22;10.10;99.90
16643;DHT22;8435;52.184;5.406;2023-12-14T13:56:49;10.10;99.90
16643;DHT22;8435;52.184;5.406;2023-12-14T13:59:16;10.10;99.90
16643;DHT22;8435;52.184;5.406;2023-12-14T14:01:45;10.10;99.90
16643;DHT22;8435;52.184;5.406;2023-12-14T14:04:18;10.10;99.90
16643;DHT22;8435;52.184;5.406;2023-12-14T14:06:45;10.10;99.90
16643;DHT22;8435;52.184;5.406;2023-12-14T14:09:12;10.10;99.90
16643;DHT22;8435;52.184;5.406;2023-12-14T14:11:40;10.10;99.90
16643;DHT22;8435;52.184;5.406;2023-12-14T14:14:11;10.10;99.90
16643;DHT22;8435;52.184;5.406;2023-12-14T14:16:37;10.10;99.90
16643;DHT22;8435;52.184;5.406;2023-12-14T14:19:04;10.10;99.90
16643;DHT22;8435;52.184;5.406;2023-12-14T14:21:32;10.10;99.90
16643;DHT22;8435;52.184;5.406;2023-12-14T14:23:59;10.10;99.90
16643;DHT22;8435;52.184;5.406;2023-12-14T14:26:26;10.10;99.90
16643;DHT22;8435;52.184;5.406;2023-12-14T14:28:52;10.10;99.90
16643;DHT22;8435;52.184;5.406;2023-12-14T14:31:21;10.10;99.90
16643;DHT22;8435;52.184;5.406;2023-12-14T14:33:48;10.00;99.90
16643;DHT22;8435;52.184;5.406;2023-12-14T14:36:15;10.00;99.90
16643;DHT22;8435;52.184;5.406;2023-12-14T14:38:43;10.00;99.90
16643;DHT22;8435;52.184;5.406;2023-12-14T14:41:10;10.00;99.90
16643;DHT22;8435;52.184;5.406;2023-12-14T14:43:36;10.00;99.90
16643;DHT22;8435;52.184;5.406;2023-12-14T14:46:03;9.90;99.90
16643;DHT22;8435;52.184;5.406;2023-12-14T14:48:30;9.90;99.90
16643;DHT22;8435;52.184;5.406;2023-12-14T14:50:57;9.90;99.90
16643;DHT22;8435;52.184;5.406;2023-12-14T14:53:24;9.90;99.90
16643;DHT22;8435;52.184;5.406;2023-12-14T14:55:52;9.90;99.90
16643;DHT22;8435;52.184;5.406;2023-12-14T14:58:23;9.90;99.90
16643;DHT22;8435;52.184;5.406;2023-12-14T15:00:50;9.90;99.90
16643;DHT22;8435;52.184;5.406;2023-12-14T15:03:17;9.80;99.90
16643;DHT22;8435;52.184;5.406;2023-12-14T15:05:45;9.80;99.90
16643;DHT22;8435;52.184;5.406;2023-12-14T15:08:12;9.80;99.90
16643;DHT22;8435;52.184;5.406;2023-12-14T15:10:39;9.80;99.90
16643;DHT22;8435;52.184;5.406;2023-12-14T15:13:07;9.80;99.90
16643;DHT22;8435;52.184;5.406;2023-12-14T15:15:35;9.70;99.90
16643;DHT22;8435;52.184;5.406;2023-12-14T15:18:04;9.70;99.90
16643;DHT22;8435;52.184;5.406;2023-12-14T15:20:30;9.70;99.90
16643;DHT22;8435;52.184;5.406;2023-12-14T15:22:57;9.70;99.90
16643;DHT22;8435;52.184;5.406;2023-12-14T15:25:24;9.70;99.90
16643;DHT22;8435;52.184;5.406;2023-12-14T15:27:51;9.70;99.90
16643;DHT22;8435;52.184;5.406;2023-12-14T15:30:20;9.70;99.90
16643;DHT22;8435;52.184;5.406;2023-12-14T15:32:47;9.70;99.90
16643;DHT22;8435;52.184;5.406;2023-12-14T15:35:16;9.70;99.90
16643;DHT22;8435;52.184;5.406;2023-12-14T15:37:43;9.70;99.90
16643;DHT22;8435;52.184;5.406;2023-12-14T15:40:10;9.70;99.90
16643;DHT22;8435;52.184;5.406;2023-12-14T15:42:37;9.70;99.90
16643;DHT22;8435;52.184;5.406;2023-12-14T15:45:05;9.70;99.90
16643;DHT22;8435;52.184;5.406;2023-12-14T15:47:39;9.70;99.90
16643;DHT22;8435;52.184;5.406;2023-12-14T15:50:09;9.70;99.90
16643;DHT22;8435;52.184;5.406;2023-12-14T15:52:36;9.70;99.90
16643;DHT22;8435;52.184;5.406;2023-12-14T15:55:03;9.70;99.90
16643;DHT22;8435;52.184;5.406;2023-12-14T15:57:32;9.70;99.90
16643;DHT22;8435;52.184;5.406;2023-12-14T15:59:58;9.70;99.90
16643;DHT22;8435;52.184;5.406;2023-12-14T16:02:25;9.70;99.90